Data for 07/26/2006

Time Sea-Level Adjusted Pressure Absolute Pressure Temperature Relative Humidity Dew Point   
(mb) (inHg) (mb) (inHg) (C) (F) (%) (C) (F)
00:05 1016 30 845 24.95 17.2 62.9 57 8.8 47.8
00:10 1016 30 846 24.98 16.9 62.4 57 8.4 47.2
00:15 1016 30 846 24.98 17 62.5 58 8.8 47.8
00:20 1016 30 846 24.98 17.7 63.8 49 7.1 44.8
00:25 1016 30 846 24.98 18.1 64.6 50 7.6 45.7
00:30 1016 30 846 24.98 17.9 64.2 51 7.8 46
00:35 1016 30 846 24.98 17.7 63.9 52 7.9 46.3
00:40 1016 30 846 24.98 17.5 63.5 52 7.7 45.8
00:45 1016 30 846 24.98 17.8 64.1 56 9 48.2
00:50 1016 30 846 24.98 17.9 64.2 51 7.8 46.1
00:55 1016 30 846 24.98 17.9 64.2 49 7.3 45.1
01:00 1016 30 846 24.98 18.1 64.6 49 7.3 45.1
01:05 1016 30 846 24.98 17.9 64.2 50 7.5 45.5
01:10 1016 30 846 24.98 17.6 63.6 51 7.5 45.6
01:15 1017 30.03 846 24.98 17.4 63.4 52 7.7 45.8
01:20 1017 30.03 846 24.98 16.9 62.4 54 7.7 45.8
01:25 1017 30.03 846 24.98 16.8 62.3 54 7.6 45.6
01:30 1017 30.03 846 24.98 17 62.6 52 7.2 45
01:35 1017 30.03 846 24.98 17.2 63 51 7.2 45
01:40 1017 30.03 846 24.98 17.2 62.9 54 7.9 46.2
01:45 1017 30.03 846 24.98 17 62.6 54 7.7 45.8
01:50 1017 30.03 846 24.98 16.6 61.9 54 7.5 45.5
01:55 1017 30.03 846 24.98 16.6 61.9 61 9.2 48.6
02:00 1017 30.03 846 24.98 16.8 62.2 53 7.2 45
02:05 1017 30.03 846 24.98 16.7 62.1 54 7.5 45.5
02:10 1017 30.03 846 24.98 17.1 62.8 51 6.9 44.4
02:15 1017 30.03 846 24.98 17.4 63.2 51 7.2 44.9
02:20 1017 30.03 846 24.98 17.4 63.2 51 7.2 45
02:25 1017 30.03 846 24.98 17.2 63 58 8.9 48
02:30 1017 30.03 846 24.98 17.1 62.9 52 7.3 45.2
02:35 1017 30.03 846 24.98 16.6 61.9 56 8 46.3
02:40 1017 30.03 846 24.98 15.9 60.6 59 8.1 46.5
02:45 1017 30.03 846 24.98 15.9 60.5 57 7.4 45.3
02:50 1017 30.03 846 24.98 16.2 61.1 54 7 44.7
02:55 1017 30.03 846 24.98 16.6 61.8 52 6.7 44.1
03:00 1017 30.03 846 24.98 17.2 62.9 51 7 44.5
03:05 1017 30.03 846 24.98 16.8 62.2 52 7 44.7
03:10 1017 30.03 846 24.98 16.3 61.4 56 7.7 45.9
03:15 1017 30.03 846 24.98 15.9 60.7 58 7.6 45.7
03:20 1017 30.03 846 24.98 15.7 60.2 58 7.5 45.5
03:25 1017 30.03 846 24.98 15.4 59.8 60 7.7 45.9
03:30 1017 30.03 846 24.98 15.4 59.8 59 7.6 45.7
03:35 1017 30.03 846 24.98 15.2 59.4 62 8 46.4
03:40 1017 30.03 846 24.98 14.7 58.4 64 8.1 46.6
03:45 1017 30.03 846 24.98 14.3 57.7 66 8 46.4
03:50 1017 30.03 846 24.98 14.5 58.1 61 7.3 45.1
03:55 1017 30.03 846 24.98 15.4 59.7 58 7.3 45.2
04:00 1017 30.03 846 24.98 15.5 60 58 7.4 45.3
04:05 1017 30.03 846 24.98 15.4 59.7 59 7.5 45.6
04:10 1017 30.03 846 24.98 15.3 59.5 60 7.5 45.5
04:15 1017 30.03 846 24.98 15.3 59.6 63 8.4 47.1
04:20 1017 30.03 846 24.98 15.5 59.8 60 7.8 46.1
04:25 1017 30.03 846 24.98 15.8 60.5 56 7.1 44.8
04:30 1017 30.03 846 24.98 16.4 61.4 52 6.7 44
04:35 1017 30.03 847 25.01 16.6 61.9 57 8.1 46.6
04:40 1017 30.03 847 25.01 16.5 61.6 53 6.9 44.5
04:45 1017 30.03 847 25.01 17 62.6 51 6.9 44.4
04:50 1017 30.03 847 25.01 16.9 62.5 57 8.3 47
04:55 1017 30.03 847 25.01 16.8 62.3 52 6.9 44.4
05:00 1017 30.03 847 25.01 16.7 62 52 6.9 44.4
05:05 1018 30.06 847 25.01 16.7 62.1 52 7 44.7
05:10 1018 30.06 847 25.01 16.8 62.3 53 7.2 45
05:15 1018 30.06 847 25.01 16.6 61.9 54 7.5 45.5
05:20 1018 30.06 847 25.01 16.2 61.1 56 7.5 45.5
05:25 1018 30.06 847 25.01 15.7 60.2 59 7.7 45.8
05:30 1018 30.06 847 25.01 15.5 59.9 59 7.6 45.7
05:35 1018 30.06 847 25.01 15.2 59.4 59 7.5 45.4
05:40 1018 30.06 847 25.01 15.2 59.3 60 7.6 45.6
05:45 1018 30.06 847 25.01 15.4 59.8 58 7.2 45
05:50 1018 30.06 847 25.01 15.7 60.2 57 7.3 45.2
05:55 1018 30.06 847 25.01 15.7 60.2 57 7.3 45.2
06:00 1018 30.06 847 25.01 15.7 60.3 62 8.6 47.5
06:05 1018 30.06 847 25.01 15.9 60.6 57 7.4 45.3
06:10 1018 30.06 847 25.01 16.1 60.9 56 7.4 45.3
06:15 1018 30.06 847 25.01 15.8 60.4 59 7.9 46.3
06:20 1018 30.06 847 25.01 15.5 59.8 59 7.5 45.6
06:25 1018 30.06 847 25.01 15 59.1 62 7.8 46
06:30 1018 30.06 847 25.01 14.9 58.8 61 7.6 45.7
06:35 1018 30.06 847 25.01 14.9 58.8 61 7.6 45.6
06:40 1018 30.06 847 25.01 15 59 61 7.6 45.6
06:45 1018 30.06 847 25.01 16.2 61.1 53 6.6 43.9
06:50 1018 30.06 847 25.01 17.2 63 58 8.9 48.1
06:55 1018 30.06 847 25.01 17.6 63.7 52 7.8 46.1
07:00 1018 30.06 847 25.01 17 62.7 53 7.4 45.4
07:05 1018 30.06 847 25.01 16.8 62.3 56 8.2 46.7
07:10 1018 30.06 847 25.01 16.4 61.5 57 7.9 46.1
07:15 1018 30.06 847 25.01 15.7 60.3 62 8.5 47.3
07:20 1018 30.06 847 25.01 15.4 59.8 60 7.9 46.1
07:25 1018 30.06 847 25.01 15.7 60.2 60 7.9 46.3
07:30 1018 30.06 847 25.01 15.8 60.5 59 8 46.4
07:35 1018 30.06 847 25.01 16.4 61.5 53 6.9 44.4
07:40 1018 30.06 848 25.04 17.7 63.9 49 7 44.5
07:45 1018 30.06 847 25.01 18.5 65.4 49 7.7 45.9
07:50 1018 30.06 847 25.01 18.3 64.9 52 8.4 47
07:55 1018 30.06 847 25.01 18.3 64.9 53 8.8 47.8
08:00 1018 30.06 847 25.01 18.2 64.8 54 8.9 48.1
08:05 1018 30.06 848 25.04 18.5 65.3 54 9.1 48.4
08:10 1018 30.06 848 25.04 18.7 65.7 52 8.9 48.1
08:15 1019 30.09 848 25.04 19.3 66.8 50 8.7 47.7
08:20 1018 30.06 848 25.04 20 68 47 8.6 47.5
08:25 1019 30.09 848 25.04 20.6 69 47 9 48.2
08:30 1019 30.09 848 25.04 20 67.9 48 8.8 47.9
08:35 1019 30.09 848 25.04 20.1 68.2 48 8.8 47.9
08:40 1019 30.09 848 25.04 20.6 69.1 43 7.9 46.3
08:45 1019 30.09 848 25.04 21.3 70.4 43 8.4 47.2
08:50 1019 30.09 848 25.04 22.2 71.9 41 8.6 47.6
08:55 1019 30.09 848 25.04 21.6 70.8 45 9.4 49
09:00 1019 30.09 848 25.04 21.6 70.9 43 8.7 47.6
09:05 1019 30.09 848 25.04 21.8 71.2 45 9.4 48.9
09:10 1019 30.09 848 25.04 21.6 70.8 45 9.4 49
09:15 1019 30.09 848 25.04 21.5 70.8 45 9.4 48.9
09:20 1019 30.09 848 25.04 21.8 71.2 42 8.6 47.6
09:25 1019 30.09 848 25.04 22 71.6 45 9.8 49.7
09:30 1019 30.09 848 25.04 21.9 71.4 45 9.5 49.1
09:35 1019 30.09 848 25.04 22 71.5 44 9.4 49
09:40 1019 30.09 848 25.04 22.9 73.3 41 9.3 48.8
09:45 1019 30.09 848 25.04 23.7 74.7 39 9.2 48.6
09:50 1019 30.09 848 25.04 24 75.2 39 9.5 49.2
09:55 1019 30.09 848 25.04 24.2 75.5 40 9.9 49.8
10:00 1019 30.09 849 25.07 24.7 76.4 38 9.6 49.2
10:05 1019 30.09 849 25.07 24.2 75.5 38 9.2 48.5
10:10 1019 30.09 849 25.07 24.9 76.8 37 9.2 48.6
10:15 1019 30.09 849 25.07 24.7 76.4 39 10 50
10:20 1019 30.09 849 25.07 24.8 76.7 34 8.2 46.8
10:25 1019 30.09 849 25.07 25.3 77.6 31 7.3 45.2
10:30 1019 30.09 849 25.07 25.9 78.5 30 7.2 44.9
10:35 1019 30.09 849 25.07 26.1 78.9 29 7.2 44.9
10:40 1019 30.09 849 25.07 26.7 80 28 6.8 44.2
10:45 1019 30.09 849 25.07 26.6 79.8 29 7.5 45.4
10:50 1019 30.09 849 25.07 26.6 79.9 28 6.8 44.2
10:55 1019 30.09 849 25.07 26.8 80.2 29 7.8 46
11:00 1019 30.09 849 25.07 27 80.6 28 7.4 45.3
11:05 1019 30.09 849 25.07 27.3 81.2 28 7.7 45.8
11:10 1019 30.09 849 25.07 27 80.5 28 7.1 44.8
11:15 1019 30.09 849 25.07 27.1 80.8 26 6.2 43.2
11:20 1019 30.09 849 25.07 27.1 80.8 26 6.3 43.3
11:25 1019 30.09 849 25.07 27.5 81.4 25 5.9 42.6
11:30 1019 30.09 849 25.07 27.7 81.8 25 6.3 43.3
11:35 1019 30.09 849 25.07 27.4 81.3 26 6.5 43.6
11:40 1019 30.09 849 25.07 27.2 81 26 6.2 43.1
11:45 1019 30.09 849 25.07 27.6 81.7 26 6.5 43.7
11:50 1019 30.09 849 25.07 27.8 82 25 6.2 43.2
11:55 1019 30.09 849 25.07 28.1 82.5 23 5.4 41.7
12:00 1019 30.09 849 25.07 28.7 83.6 20 4.1 39.3
12:05 1019 30.09 849 25.07 27.9 82.2 22 4.4 40
12:10 1019 30.09 849 25.07 28.3 83 21 4.5 40.2
12:15 1019 30.09 848 25.04 28.6 83.5 21 4.8 40.6
12:20 1019 30.09 848 25.04 28.9 84.1 20 3.8 38.8
12:25 1019 30.09 848 25.04 28.9 84 20 3.9 39
12:30 1019 30.09 848 25.04 28.5 83.3 20 3.6 38.4
12:35 1019 30.09 848 25.04 28.1 82.6 21 3.9 39
12:40 1019 30.09 848 25.04 27.8 82 20 3 37.4
12:45 1019 30.09 848 25.04 27.7 81.8 21 3.5 38.3
12:50 1019 30.09 848 25.04 27.8 82.1 20 3.1 37.7
12:55 1019 30.09 848 25.04 28.2 82.8 20 3.5 38.3
13:00 1019 30.09 848 25.04 28.9 84 19 3.2 37.8
13:05 1019 30.09 848 25.04 28.6 83.5 20 4 39.2
13:10 1019 30.09 848 25.04 28.3 82.9 21 4.4 39.9
13:15 1019 30.09 848 25.04 28.5 83.4 22 5 41
13:20 1019 30.09 848 25.04 28.8 83.9 21 4.6 40.3
13:25 1019 30.09 848 25.04 29.1 84.3 21 4.7 40.4
13:30 1019 30.09 848 25.04 29.3 84.7 21 4.9 40.8
13:35 1019 30.09 848 25.04 29.3 84.8 21 5 40.9
13:40 1019 30.09 848 25.04 29.4 84.8 21 5.3 41.6
13:45 1019 30.09 848 25.04 29.3 84.8 21 5 41.1
13:50 1019 30.09 848 25.04 29.6 85.3 22 6.2 43.2
13:55 1019 30.09 848 25.04 29.7 85.4 22 6.1 43
14:00 1019 30.09 848 25.04 29.8 85.6 22 6.1 43
14:05 1019 30.09 848 25.04 29.5 85 21 5.2 41.3
14:10 1018 30.06 848 25.04 30.1 86.1 20 4.9 40.7
14:15 1018 30.06 848 25.04 30.3 86.5 21 5.9 42.6
14:20 1018 30.06 848 25.04 29.8 85.7 22 6.1 43
14:25 1018 30.06 848 25.04 30.2 86.3 21 5.5 41.9
14:30 1018 30.06 847 25.01 30.5 87 21 5.9 42.6
14:35 1018 30.06 847 25.01 30.3 86.6 22 6.3 43.4
14:40 1018 30.06 847 25.01 30.3 86.6 21 5.9 42.7
14:45 1018 30.06 847 25.01 30.6 87.1 20 5.6 42.1
14:50 1018 30.06 847 25.01 30.6 87 20 5.3 41.5
14:55 1018 30.06 847 25.01 30.7 87.2 20 5.4 41.7
15:00 1018 30.06 847 25.01 30 86 21 5.8 42.5
15:05 1018 30.06 847 25.01 30.3 86.5 21 6 42.7
15:10 1018 30.06 847 25.01 29.6 85.3 22 5.7 42.2
15:15 1018 30.06 847 25.01 29.6 85.3 22 5.7 42.3
15:20 1018 30.06 847 25.01 29.4 84.9 21 5.3 41.6
15:25 1018 30.06 847 25.01 29.5 85.1 21 5.3 41.5
15:30 1018 30.06 847 25.01 29.3 84.7 23 6.1 42.9
15:35 1018 30.06 847 25.01 29.7 85.4 21 5.5 41.8
15:40 1018 30.06 847 25.01 30.7 87.2 20 5.2 41.4
15:45 1018 30.06 847 25.01 30.8 87.5 19 4.9 40.8
15:50 1018 30.06 847 25.01 30.7 87.3 21 6.4 43.5
15:55 1018 30.06 847 25.01 30.3 86.6 20 5.5 41.8
16:00 1018 30.06 847 25.01 30.4 86.7 19 4.8 40.6
16:05 1018 30.06 847 25.01 31.4 88.5 18 4.6 40.4
16:10 1018 30.06 847 25.01 30.8 87.5 19 4.9 40.8
16:15 1018 30.06 847 25.01 30.9 87.5 20 5.6 42
16:20 1017 30.03 847 25.01 31.6 88.8 16 3.3 37.9
16:25 1017 30.03 847 25.01 31.2 88.2 18 4.7 40.4
16:30 1017 30.03 847 25.01 31.3 88.3 18 4.7 40.5
16:35 1017 30.03 846 24.98 31.9 89.4 16 3.6 38.6
16:40 1017 30.03 846 24.98 32.1 89.8 17 4.7 40.5
16:45 1017 30.03 846 24.98 32.2 90 16 3.9 38.9
16:50 1017 30.03 846 24.98 32.1 89.7 15 3 37.5
16:55 1017 30.03 846 24.98 31.3 88.3 16 2.4 36.4
17:00 1017 30.03 846 24.98 31.1 88 15 2.2 36
17:05 1017 30.03 846 24.98 31.1 88 16 2.4 36.3
17:10 1017 30.03 846 24.98 31.4 88.5 15 2.4 36.3
17:15 1017 30.03 846 24.98 32 89.6 16 3.2 37.7
17:20 1017 30.03 846 24.98 31.7 89.1 17 3.9 39.1
17:25 1017 30.03 846 24.98 31.6 88.8 16 3.2 37.8
17:30 1017 30.03 846 24.98 31.8 89.2 15 2.5 36.5
17:35 1017 30.03 846 24.98 31.1 88 16 2.8 37
17:40 1017 30.03 846 24.98 30.8 87.5 16 2.1 35.8
17:45 1017 30.03 846 24.98 31.6 88.9 15 2.3 36.2
17:50 1017 30.03 846 24.98 31.6 88.8 15 2.4 36.4
17:55 1017 30.03 846 24.98 31.5 88.6 15 2.3 36.1
18:00 1017 30.03 846 24.98 31.3 88.4 16 3.3 37.9
18:05 1017 30.03 846 24.98 31.1 88 15 2.1 35.8
18:10 1017 30.03 846 24.98 31.6 88.8 15 2.1 35.8
18:15 1017 30.03 846 24.98 31.7 89 15 2.2 36
18:20 1017 30.03 846 24.98 31.5 88.8 15 2.5 36.6
18:25 1017 30.03 846 24.98 31.2 88.2 17 3.2 37.8
18:30 1017 30.03 846 24.98 30.6 87 16 2.4 36.3
18:35 1017 30.03 846 24.98 30.3 86.5 16 2.2 35.9
18:40 1017 30.03 846 24.98 30.2 86.3 16 2.2 36
18:45 1017 30.03 846 24.98 30.4 86.8 16 2 35.6
18:50 1017 30.03 846 24.98 30.2 86.3 17 2.7 36.9
18:55 1017 30.03 846 24.98 30.2 86.3 19 4 39.2
19:00 1017 30.03 846 24.98 29.9 85.7 17 2.1 35.8
19:05 1017 30.03 846 24.98 29.8 85.7 18 3.5 38.4
19:10 1017 30.03 846 24.98 29.8 85.6 18 3.4 38.2
19:15 1017 30.03 846 24.98 29.7 85.4 20 4.8 40.7
19:20 1017 30.03 846 24.98 29.5 85.1 19 3.6 38.5
19:25 1017 30.03 846 24.98 29.4 84.9 18 2.9 37.2
19:30 1017 30.03 846 24.98 29.4 84.8 18 3.2 37.8
19:35 1017 30.03 846 24.98 29.4 84.9 19 3.9 39
19:40 1017 30.03 846 24.98 29.4 84.9 19 3.4 38.2
19:45 1017 30.03 846 24.98 29.3 84.8 18 3.1 37.6
19:50 1017 30.03 846 24.98 29.2 84.6 18 3.2 37.7
19:55 1017 30.03 846 24.98 29.1 84.5 20 4.1 39.4
20:00 1017 30.03 846 24.98 29 84.3 20 4.1 39.4
20:05 1017 30.03 846 24.98 28.9 84 20 4.2 39.6
20:10 1017 30.03 846 24.98 28.8 83.8 20 4.2 39.5
20:15 1017 30.03 846 24.98 28.6 83.5 20 4.1 39.4
20:20 1017 30.03 846 24.98 28.5 83.4 20 4 39.2
20:25 1017 30.03 846 24.98 28.6 83.4 26 7.7 45.9
20:30 1017 30.03 846 24.98 28.3 82.9 23 5.4 41.8
20:35 1017 30.03 846 24.98 28.3 82.9 21 4.4 39.9
20:40 1017 30.03 846 24.98 28.2 82.8 19 2.6 36.6
20:45 1017 30.03 846 24.98 28.3 82.9 20 3.7 38.6
20:50 1017 30.03 846 24.98 28.3 83 19 2.8 37.1
20:55 1017 30.03 846 24.98 27.8 82 29 8.6 47.5
21:00 1017 30.03 846 24.98 26.4 79.5 34 9.7 49.5
21:05 1017 30.03 846 24.98 25.4 77.7 36 9.3 48.8
21:10 1017 30.03 846 24.98 24.6 76.2 35 8.2 46.8
21:15 1017 30.03 846 24.98 24 75.3 35 7.6 45.8
21:20 1017 30.03 846 24.98 23.9 75 35 7.8 46
21:25 1017 30.03 846 24.98 23.5 74.3 37 8.3 47
21:30 1017 30.03 846 24.98 22.7 72.8 43 9.8 49.7
21:35 1017 30.03 846 24.98 22.1 71.7 38 7.1 44.9
21:40 1017 30.03 846 24.98 22.4 72.2 34 6 42.8
21:45 1017 30.03 846 24.98 22.4 72.3 37 7.1 44.8
21:50 1017 30.03 846 24.98 21.9 71.5 34 5.6 42
21:55 1017 30.03 846 24.98 22.1 71.8 33 5.4 41.7
22:00 1017 30.03 846 24.98 22.2 72 32 4.9 40.9
22:05 1017 30.03 847 25.01 22.7 72.8 31 4.9 40.8
22:10 1017 30.03 847 25.01 22.6 72.7 32 5.1 41.2
22:15 1017 30.03 847 25.01 22.4 72.2 32 5.3 41.5
22:20 1017 30.03 847 25.01 21.9 71.4 34 5.5 41.9
22:25 1018 30.06 847 25.01 21.4 70.4 35 5.4 41.7
22:30 1018 30.06 847 25.01 21.4 70.6 34 5.1 41.2
22:35 1018 30.06 847 25.01 21.4 70.4 34 5.2 41.4
22:40 1018 30.06 847 25.01 21.2 70.2 34 5.1 41.2
22:45 1018 30.06 847 25.01 21 69.9 35 5.1 41.2
22:50 1018 30.06 847 25.01 21 69.9 34 4.8 40.6
22:55 1018 30.06 847 25.01 21.1 70 34 5 41
23:00 1018 30.06 847 25.01 21.1 69.9 36 5.4 41.7
23:05 1018 30.06 847 25.01 21.1 70 34 5 41
23:10 1018 30.06 847 25.01 21.1 69.9 34 5 40.9
23:15 1018 30.06 847 25.01 20.9 69.7 35 5 41
23:20 1018 30.06 847 25.01 21.1 70 33 4.5 40
23:25 1018 30.06 847 25.01 21.1 70 35 5.4 41.7
23:30 1018 30.06 847 25.01 21.3 70.3 33 4.4 39.9
23:35 1018 30.06 847 25.01 21.5 70.6 33 4.9 40.7
23:40 1018 30.06 847 25.01 21.1 70 40 7.2 45
23:45 1018 30.06 847 25.01 20.6 69.1 38 5.9 42.5
23:50 1018 30.06 847 25.01 19.9 67.8 42 6.7 44.1
23:55 1018 30.06 847 25.01 19.9 67.7 38 5.4 41.8
24:00 1018 30.06 847 25.01 20 68 37 5 41